Latest Weather Observations for Laverton

IDV60801

Issued at 7:02 am EDT Thursday 8 December 2022 (issued every 10 minutes, with the page automatically refreshed every 10 minutes)

About weather observations | Map of weather stations | Latest weather observations for VIC | Other Formats
Station Details ID: 087031 Name: LAVERTON RAAF Lat: -37.86 Lon: 144.76 Height: 20.1 m
Data from the previous 72 hours. | See also: Recent months at Laverton
Date/Time
EDT
Temp
°C
App
Temp
°C
Dew
Point
°C
Rel
Hum
%
Delta-T
°C
Wind Press
QNH
hPa
Press
MSL
hPa
Rain since
9am
mm
Dir  Spd
km/h
Gust
km/h
Spd
kts
Gust
kts
08/07:00am 9.2 4.4 4.8 74 2.0 W 19 26 10 14 1012.2 1012.1 0.0
08/06:30am 8.1 4.1 4.7 79 1.5 W 15 20 8 11 1011.8 1011.7 0.0
08/06:00am 8.1 4.1 4.9 80 1.4 W 15 20 8 11 1011.3 1011.3 0.0
08/05:30am 7.9 3.9 4.7 80 1.4 W 15 22 8 12 1010.9 1010.9 0.0
08/05:00am 8.1 3.7 4.9 80 1.4 W 17 20 9 11 1010.9 1010.9 0.0
08/04:30am 8.2 3.8 4.6 78 1.6 W 17 22 9 12 1010.8 1010.8 0.0
08/04:00am 8.4 3.9 4.2 75 1.8 W 17 26 9 14 1011.0 1011.0 0.0
08/03:30am 8.4 3.9 4.4 76 1.8 W 17 24 9 13 1010.8 1010.8 0.0
08/03:00am 8.8 4.0 4.4 74 1.9 W 19 28 10 15 1010.6 1010.6 0.0
08/02:30am 8.9 4.0 4.3 73 2.0 W 19 24 10 13 1010.6 1010.6 0.0
08/02:00am 9.1 4.2 4.3 72 2.1 W 19 28 10 15 1010.6 1010.6 0.0
08/01:30am 9.1 4.7 4.5 73 2.0 W 17 24 9 13 1010.8 1010.8 0.0
08/01:00am 9.5 5.4 4.5 71 2.2 W 15 22 8 12 1011.0 1011.0 0.0
08/12:30am 10.2 5.2 4.4 67 2.6 WSW 20 32 11 17 1011.0 1011.0 0.0
08/12:00am 10.2 5.3 4.1 66 2.7 WSW 19 26 10 14 1010.9 1010.9 0.0
 
Date/Time
EDT
Temp
°C
App
Temp
°C
Dew
Point
°C
Rel
Hum
%
Delta-T
°C
Wind Press
QNH
hPa
Press
MSL
hPa
Rain since
9am
mm
Dir  Spd
km/h
Gust
km/h
Spd
kts
Gust
kts
07/11:30pm 10.6 5.5 4.1 64 2.9 WSW 20 28 11 15 1010.8 1010.8 0.0
07/11:00pm 11.4 4.8 4.4 62 3.2 WSW 28 41 15 22 1010.6 1010.6 0.0
07/10:30pm 11.7 6.0 5.1 64 3.0 WSW 24 39 13 21 1010.1 1010.1 0.0
07/10:00pm 12.2 5.4 5.1 62 3.3 WSW 30 44 16 24 1009.4 1009.4 0.0
07/09:30pm 12.6 7.8 7.3 70 2.6 WSW 22 33 12 18 1008.8 1008.8 0.0
07/09:02pm 13.1 7.2 7.3 68 2.8 WSW 28 46 15 25 1008.1 1008.1 0.0
07/09:00pm 13.1 7.6 7.5 69 2.7 WSW 26 43 14 23 1008.1 1008.1 0.0
07/08:30pm 13.3 7.2 8.2 71 2.5 WSW 30 48 16 26 1007.5 1007.5 0.0
07/08:00pm 13.1 7.3 9.4 78 1.9 WSW 30 52 16 28 1007.1 1007.1 0.0
07/07:30pm 13.6 6.0 8.9 73 2.4 WSW 39 57 21 31 1006.4 1006.4 0.0
07/07:05pm 17.1 10.3 7.7 54 4.7 WSW 33 52 18 28 1005.4 1005.4 0.0
07/07:00pm 17.3 10.6 7.4 52 5.0 WSW 32 48 17 26 1005.2 1005.2 0.0
07/06:30pm 18.7 11.4 4.5 39 6.8 WSW 32 50 17 27 1004.4 1004.4 0.0
07/06:25pm 19.3 12.7 4.3 37 7.2 WSW 28 50 15 27 1004.2 1004.2 0.0
07/06:00pm 19.3 13.0 5.7 41 6.7 WSW 28 41 15 22 1004.3 1004.3 0.0
07/05:49pm 19.1 12.6 4.5 38 7.0 WSW 28 46 15 25 1004.1 1004.1 0.0
07/05:30pm 19.7 15.1 5.4 39 7.0 SW 19 39 10 21 1004.3 1004.3 0.0
07/05:00pm 16.4 12.5 9.6 64 3.6 SSE 20 28 11 15 1004.5 1004.5 0.0
07/04:30pm 16.7 12.5 9.9 64 3.6 SSE 22 33 12 18 1004.6 1004.6 0.0
07/04:00pm 17.4 12.5 10.1 62 3.9 SSE 26 37 14 20 1004.4 1004.4 0.0
07/03:30pm 16.6 12.0 9.8 64 3.6 S 24 33 13 18 1004.6 1004.6 0.0
07/03:00pm 17.6 13.0 11.2 66 3.5 SSE 26 35 14 19 1004.6 1004.6 0.0
07/02:30pm 17.8 14.0 12.3 70 3.0 SSE 24 37 13 20 1004.4 1004.4 0.0
07/02:00pm 17.8 14.2 12.0 69 3.2 SSE 22 32 12 17 1004.4 1004.4 0.0
07/01:30pm 17.1 14.1 11.8 71 2.9 SE 19 26 10 14 1004.6 1004.6 0.0
07/01:00pm 17.7 14.4 11.7 68 3.3 SSE 20 28 11 15 1004.4 1004.4 0.0
07/12:30pm 19.5 17.1 11.3 59 4.5 SSW 15 22 8 12 1004.3 1004.3 0.0
07/12:00pm 18.3 15.4 10.9 62 4.0 S 17 28 9 15 1004.7 1004.7 0.0
07/11:30am 18.5 15.7 12.5 68 3.3 S 19 26 10 14 1004.7 1004.7 0.0
07/11:00am 19.0 16.6 11.3 61 4.2 SSW 15 24 8 13 1004.4 1004.4 0.0
07/10:30am 18.1 16.1 11.4 65 3.7 SW 13 17 7 9 1004.3 1004.3 0.0
07/10:00am 17.2 15.8 12.1 72 2.8 SSW 11 17 6 9 1004.5 1004.5 0.0
07/09:30am 15.9 14.6 11.1 73 2.6 SW 9 13 5 7 1004.5 1004.5 0.0
07/09:00am 15.5 14.0 10.5 72 2.6 SSW 9 13 5 7 1004.5 1004.5 0.0
07/08:30am 15.1 14.2 10.5 74 2.4 S 6 7 3 4 1004.5 1004.5 0.0
07/08:00am 14.7 13.7 10.3 75 2.3 SE 6 7 3 4 1004.2 1004.2 0.0
07/07:30am 14.6 14.8 11.7 83 1.6 E 2 7 1 4 1004.0 1004.0 0.0
07/07:00am 13.0 13.8 12.4 96 0.3 CALM 0 0 0 0 1003.9 1003.9 0.0
07/06:30am 11.2 10.8 11.0 99 0.1 E 4 6 2 3 1003.8 1003.8 0.0
07/06:00am 10.9 9.8 10.7 99 0.1 E 7 9 4 5 1003.9 1003.9 0.0
07/05:30am 11.3 10.3 11.1 99 0.1 E 7 9 4 5 1003.9 1003.9 0.0
07/05:00am 12.0 11.0 11.1 94 0.5 E 7 9 4 5 1003.7 1003.7 0.0
07/04:30am 12.7 11.4 11.3 91 0.7 E 9 11 5 6 1003.9 1003.9 0.0
07/04:00am 12.7 11.7 11.1 90 0.8 E 7 9 4 5 1004.2 1004.2 0.0
07/03:30am 12.9 11.6 9.9 82 1.5 E 7 7 4 4 1004.4 1004.4 0.0
07/03:00am 12.9 13.0 10.1 83 1.4 CALM 0 0 0 0 1004.7 1004.7 0.0
07/02:30am 13.1 13.3 10.5 84 1.4 CALM 0 0 0 0 1005.2 1005.2 0.0
07/02:00am 13.3 12.1 9.7 79 1.9 E 6 7 3 4 1005.5 1005.5 0.0
07/01:30am 13.3 12.2 10.1 81 1.7 E 6 9 3 5 1005.8 1005.8 0.0
07/01:00am 13.7 12.1 10.1 79 1.9 ESE 9 13 5 7 1006.1 1006.1 0.0
07/12:30am 14.1 12.5 10.1 77 2.1 ESE 9 15 5 8 1006.3 1006.3 0.0
07/12:00am 14.1 12.0 9.9 76 2.2 ESE 11 15 6 8 1006.6 1006.6 0.0
 
Date/Time
EDT
Temp
°C
App
Temp
°C
Dew
Point
°C
Rel
Hum
%
Delta-T
°C
Wind Press
QNH
hPa
Press
MSL
hPa
Rain since
9am
mm
Dir  Spd
km/h
Gust
km/h
Spd
kts
Gust
kts
06/11:30pm 14.0 11.9 9.6 75 2.3 SE 11 17 6 9 1007.1 1007.1 0.0
06/11:00pm 14.3 11.7 9.3 72 2.6 SE 13 17 7 9 1007.3 1007.3 0.0
06/10:30pm 14.5 11.9 9.5 72 2.6 SE 13 19 7 10 1007.4 1007.4 0.0
06/10:00pm 15.1 12.6 9.7 70 2.8 SE 13 20 7 11 1007.7 1007.7 0.0
06/09:30pm 15.5 13.1 10.1 70 2.8 SE 13 22 7 12 1007.7 1007.7 0.0
06/09:00pm 15.8 13.8 10.1 69 3.0 SE 11 15 6 8 1007.5 1007.5 0.0
06/08:30pm 16.2 13.9 10.3 68 3.1 SE 13 22 7 12 1007.3 1007.3 0.0
06/08:00pm 16.5 13.4 10.4 67 3.2 SE 17 22 9 12 1007.5 1007.5 0.0
06/07:30pm 17.4 14.2 10.1 62 3.9 SE 17 22 9 12 1007.5 1007.5 0.0
06/07:00pm 18.0 15.1 10.9 63 3.8 SE 17 24 9 13 1007.4 1007.4 0.0
06/06:30pm 18.3 14.7 10.4 60 4.2 SE 20 28 11 15 1007.5 1007.5 0.0
06/06:00pm 18.9 15.6 9.7 55 4.9 SSE 17 24 9 13 1007.6 1007.6 0.0
06/05:30pm 19.1 15.2 9.6 54 5.0 SSE 20 30 11 16 1007.7 1007.7 0.0
06/05:00pm 19.5 15.9 9.7 53 5.2 SSE 19 26 10 14 1008.2 1008.2 0.0
06/04:30pm 19.4 16.1 9.6 53 5.2 SSE 17 26 9 14 1008.6 1008.6 0.0
06/04:00pm 19.8 17.4 11.3 58 4.7 SSE 15 20 8 11 1008.8 1008.8 0.0
06/03:30pm 19.5 15.9 10.0 54 5.1 SSE 19 24 10 13 1009.0 1009.0 0.0
06/03:00pm 20.0 17.0 10.7 55 5.1 SE 17 32 9 17 1009.1 1009.1 0.0
06/02:30pm 19.2 15.3 8.5 50 5.6 SE 19 26 10 14 1009.4 1009.4 0.0
06/02:00pm 19.9 16.7 10.0 53 5.3 SSE 17 24 9 13 1009.7 1009.7 0.0
06/01:30pm 19.6 17.0 10.6 56 4.9 SE 15 20 8 11 1010.2 1010.2 0.0
06/01:00pm 18.9 15.2 10.2 57 4.7 SSE 20 26 11 14 1010.6 1010.6 0.0
06/12:30pm 18.7 15.6 10.3 58 4.5 SE 17 24 9 13 1011.0 1011.0 0.0
06/12:00pm 18.4 15.7 11.7 65 3.7 SSE 17 24 9 13 1011.2 1011.2 0.0
06/11:30am 18.1 16.2 13.0 72 2.9 SSE 15 24 8 13 1011.2 1011.2 0.0
06/11:00am 16.9 15.1 12.0 73 2.7 SSE 13 20 7 11 1011.3 1011.3 0.0
06/10:30am 16.4 14.3 11.3 72 2.7 SE 13 19 7 10 1011.7 1011.6 0.0
06/10:00am 15.5 13.7 12.1 80 1.9 ESE 13 20 7 11 1012.0 1011.9 0.0
06/09:30am 15.2 12.3 11.0 76 2.2 E 17 28 9 15 1012.2 1012.1 0.0
06/09:22am 14.6 11.3 11.6 82 1.6 ESE 20 33 11 18 1012.4 1012.3 0.0
06/09:01am 14.4 11.8 13.3 93 0.6 ESE 19 28 10 15 1012.4 1012.3 0.0
06/09:00am 14.4 12.2 13.3 93 0.6 ESE 17 28 9 15 1012.4 1012.3 2.4
06/08:30am 14.1 11.3 12.7 91 0.8 ESE 19 28 10 15 1012.2 1012.1 2.4
06/08:00am 13.8 12.2 12.9 94 0.5 ESE 13 20 7 11 1012.1 1012.0 2.4
06/07:30am 13.5 12.9 13.5 100 0.0 SW 9 13 5 7 1011.8 1011.7 2.4
06/07:14am 13.5 13.3 13.5 100 0.0 SW 7 9 4 5 1011.5 1011.5 2.4
06/07:13am 13.5 13.3 13.5 100 0.0 SW 7 9 4 5 1011.5 1011.5 2.4
06/07:00am 13.1 12.4 13.1 100 0.0 SW 9 15 5 8 1011.5 1011.5 2.2
06/06:54am 12.8 11.2 12.8 100 0.0 SW 13 19 7 10 1011.5 1011.5 2.2
06/06:50am 12.8 11.1 12.6 99 0.1 SW 13 19 7 10 1011.5 1011.5 2.0
06/06:30am 13.0 11.9 13.0 100 0.0 WSW 11 17 6 9 1011.3 1011.3 1.2
06/06:05am 12.8 12.0 12.8 100 0.0 W 9 13 5 7 1011.3 1011.3 1.2
06/06:00am 12.7 11.5 12.7 100 0.0 W 11 13 6 7 1011.3 1011.3 1.2
06/05:30am 12.7 10.7 12.7 100 0.0 W 15 20 8 11 1011.1 1011.1 1.2
06/05:00am 12.8 11.5 12.6 99 0.1 SW 11 15 6 8 1011.2 1011.2 1.2
06/04:59am 12.8 11.5 12.6 99 0.1 SW 11 17 6 9 1011.2 1011.2 1.2
06/04:52am 12.9 11.7 12.7 99 0.1 WSW 11 17 6 9 1011.1 1011.1 1.2
06/04:30am 13.6 11.9 13.6 100 0.0 SW 15 24 8 13 1011.2 1011.2 1.2
06/04:23am 13.5 10.8 13.5 100 0.0 SW 20 26 11 14 1011.2 1011.2 1.2
06/04:04am 13.6 11.4 13.4 99 0.1 SW 17 24 9 13 1011.2 1011.2 0.8
06/04:00am 13.6 11.4 13.4 99 0.1 SW 17 24 9 13 1011.2 1011.2 0.8
06/03:30am 13.8 10.8 12.7 93 0.6 SW 20 26 11 14 1011.2 1011.2 0.4
06/03:28am 13.9 10.9 12.5 91 0.8 SW 20 30 11 16 1011.2 1011.2 0.4
06/03:00am 14.1 10.9 12.0 87 1.1 SSW 20 30 11 16 1011.4 1011.4 0.4
06/02:30am 13.7 10.1 11.9 89 1.0 SW 22 32 12 17 1011.4 1011.4 0.4
06/02:00am 13.4 9.5 12.0 91 0.8 SW 24 35 13 19 1011.8 1011.7 0.4
06/01:30am 13.2 9.5 11.6 90 0.9 SW 22 33 12 18 1012.1 1012.0 0.4
06/01:00am 13.2 8.9 10.9 86 1.2 SW 24 32 13 17 1012.4 1012.3 0.4
06/12:57am 13.2 9.3 10.9 86 1.2 SW 22 32 12 17 1012.4 1012.3 0.4
06/12:30am 13.3 8.9 10.5 83 1.5 SSW 24 39 13 21 1012.9 1012.8 0.4
06/12:00am 13.3 8.1 10.1 81 1.7 SSW 28 39 15 21 1013.2 1013.1 0.4
 
Date/Time
EDT
Temp
°C
App
Temp
°C
Dew
Point
°C
Rel
Hum
%
Delta-T
°C
Wind Press
QNH
hPa
Press
MSL
hPa
Rain since
9am
mm
Dir  Spd
km/h
Gust
km/h
Spd
kts
Gust
kts
05/11:30pm 13.5 8.6 10.1 80 1.8 SSW 26 39 14 21 1013.4 1013.3 0.4
05/11:00pm 13.5 8.6 10.1 80 1.8 SSW 26 39 14 21 1013.5 1013.4 0.4
05/10:30pm 13.7 8.4 9.9 78 2.0 SSW 28 44 15 24 1013.8 1013.7 0.4
05/10:00pm 13.9 7.7 9.3 74 2.3 SSW 32 46 17 25 1013.8 1013.7 0.4
05/09:32pm 14.0 7.8 9.2 73 2.4 SW 32 50 17 27 1013.5 1013.4 0.4
05/09:30pm 14.0 7.6 9.2 73 2.4 SW 33 50 18 27 1013.5 1013.4 0.4
05/09:04pm 14.3 8.4 8.9 70 2.7 SSW 30 48 16 26 1013.6 1013.5 0.4
05/09:00pm 14.3 7.8 8.9 70 2.7 SSW 33 50 18 27 1013.5 1013.4 0.4
05/08:30pm 14.4 8.5 9.2 71 2.7 SW 30 50 16 27 1013.4 1013.3 0.4
05/08:11pm 14.7 8.2 8.9 68 3.0 SW 33 52 18 28 1013.2 1013.1 0.4
05/08:00pm 14.7 8.9 9.3 70 2.8 SW 30 44 16 24 1013.1 1013.0 0.4
05/07:34pm 15.0 9.4 8.9 67 3.1 SW 28 46 15 25 1012.9 1012.8 0.4
05/07:30pm 15.0 8.7 8.9 67 3.1 SW 32 46 17 25 1012.9 1012.8 0.4
05/07:17pm 15.0 9.2 9.4 69 2.9 SW 30 48 16 26 1012.7 1012.6 0.4
05/07:00pm 15.0 7.5 9.6 70 2.8 SSW 39 54 21 29 1012.5 1012.4 0.4
05/06:30pm 15.4 9.9 10.4 72 2.6 SW 30 50 16 27 1012.3 1012.2 0.4
05/06:00pm 15.6 9.2 9.5 67 3.2 SW 33 54 18 29 1012.1 1012.0 0.4
05/05:30pm 15.8 9.3 10.3 70 2.9 SW 35 54 19 29 1012.0 1011.9 0.4
05/05:00pm 16.5 9.6 10.4 67 3.2 SSW 37 57 20 31 1011.9 1011.8 0.4
05/04:46pm 16.7 10.1 9.9 64 3.6 SSW 35 54 19 29 1011.9 1011.8 0.4
05/04:30pm 16.7 10.2 10.3 66 3.4 SSW 35 50 19 27 1011.9 1011.8 0.4
05/04:02pm 17.0 9.9 9.4 61 4.0 SW 37 56 20 30 1011.9 1011.8 0.2
05/04:00pm 16.9 9.9 9.8 63 3.7 SW 37 54 20 29 1011.9 1011.8 0.2
05/03:42pm 17.2 9.8 9.9 62 3.8 SSW 39 57 21 31 1011.8 1011.7 0.2
05/03:30pm 17.5 10.3 10.4 63 3.8 SSW 39 54 21 29 1011.8 1011.7 0.2
05/03:00pm 16.5 10.1 10.6 68 3.1 SSW 35 54 19 29 1011.9 1011.8 0.2
05/02:45pm 15.6 10.1 12.0 79 2.0 SSW 32 50 17 27 1011.9 1011.8 0.2
05/02:30pm 16.4 10.9 10.7 69 3.0 SSW 30 46 16 25 1012.0 1011.9 0.2
05/02:02pm 16.4 10.5 10.5 68 3.1 SSW 32 50 17 27 1012.0 1011.9 0.2
05/02:00pm 16.3 10.1 10.2 67 3.2 SSW 33 50 18 27 1012.0 1011.9 0.2
05/01:30pm 17.8 12.0 10.9 64 3.7 SSW 32 54 17 29 1011.8 1011.7 0.2
05/01:25pm 17.6 11.6 10.2 62 3.9 SW 32 54 17 29 1011.9 1011.8 0.2
05/01:00pm 17.2 11.1 9.6 61 4.0 SSW 32 44 17 24 1011.9 1011.8 0.2
05/12:47pm 17.2 11.4 10.8 66 3.4 SW 32 50 17 27 1011.9 1011.8 0.2
05/12:30pm 17.5 11.3 10.1 62 3.9 SW 33 48 18 26 1011.8 1011.7 0.2
05/12:00pm 17.8 11.7 9.9 60 4.2 SSW 32 48 17 26 1011.3 1011.3 0.2
05/11:56am 17.5 11.9 10.1 62 3.9 SSW 30 48 16 26 1011.3 1011.3 0.2
05/11:30am 16.9 10.3 10.1 64 3.6 SSW 35 46 19 25 1011.0 1011.0 0.2
05/11:00am 16.2 10.1 10.3 68 3.1 SSW 33 46 18 25 1010.9 1010.9 0.2
05/10:39am 16.0 11.0 11.0 72 2.7 SSW 28 46 15 25 1010.7 1010.7 0.2
05/10:30am 15.2 10.3 11.2 77 2.1 SSW 28 43 15 23 1010.7 1010.7 0.2
05/10:22am 15.2 9.6 11.6 79 1.9 SSW 32 50 17 27 1010.5 1010.5 0.2
05/10:00am 15.4 10.3 11.8 79 2.0 SSW 30 44 16 24 1010.3 1010.3 0.2
05/09:37am 14.7 11.1 12.9 89 1.0 SW 24 35 13 19 1010.2 1010.2 0.2
05/09:30am 14.4 11.0 13.8 96 0.3 SW 24 35 13 19 1010.2 1010.2 0.2
05/09:11am 14.6 10.2 13.0 90 0.9 SSW 28 43 15 23 1010.1 1010.1 0.0
05/09:00am 15.7 10.2 11.9 78 2.1 SW 32 48 17 26 1010.0 1010.0 0.0
05/08:55am 16.2 11.1 11.8 75 2.4 SW 30 48 16 26 1009.9 1009.9 0.0
05/08:30am 15.8 11.2 12.4 80 1.9 SSW 28 44 15 24 1009.8 1009.8 0.0
05/08:00am 15.3 10.9 13.0 86 1.3 SW 28 43 15 23 1009.6 1009.6 0.0
05/07:30am 15.8 13.0 13.3 85 1.4 SW 20 41 11 22 1009.3 1009.3 0.0

Other formats

Comma delimited format used in spreadsheet applications
http://www.bom.gov.au/fwo/IDV60801/IDV60801.94865.axf

JavaScript Object Notation format (JSON) in row-major order
http://www.bom.gov.au/fwo/IDV60801/IDV60801.94865.json

Data quality

Most of these data are generated automatically and are frequently updated. Quality checks on data are not normally performed. It is possible for incorrect values to appear. Refer to information at About Latest Weather Observations and please check the disclaimer before using these data.